LiveATC.Net - Listen to live air traffic control over the Internet!


ICAO: 02C  IATA: 02C   Airport: Capitol Airport
City: Brookfield   State/Province: Wisconsin
Country: United States   Continent: North America
KUES METAR Weather: KUES 152245Z 22012G22KT 10SM SCT055 30/16 A2996
02C Flight Activity (FlightAware)
02C Airport Info   (iFlightPlanner)
02C VFR Sectional Chart   (iFlightPlanner) 
02C IFR Low Chart   (iFlightPlanner) 

02C CTAF
Feed Status: DOWN
Last heard on: 2019-05-15 02:32:01 (61 days 20 hours 33 minutes ago)
02C CTAF Audio Archives
FacilityFrequency
Capitol CTAF/UNICOM122.700

02C Emergency/Guard
Feed Status: DOWN
Last heard on: 2019-05-15 02:32:02 (61 days 20 hours 33 minutes ago)
02C Emergency/Guard Audio Archives

NOTICE

Unauthorized use prohibited. See LiveATC.net Terms of Service


Find LiveATC Audio Streams


Airport/ARTCC Code

Frequency Search
(e.g., 124.400, 128.75)
Site-wide search
 


Browse LiveATC Feeds
Top 50 LiveATC Feeds
LiveATC Feed Map
Bad Weather Areas

LiveATC FAQ
Offer LiveATC feed
Contact LiveATC.net
Press Inquiries

LiveATC on iPhone
LiveATC on Android

Windows Phone
Windows 8/10

LiveATC Mobile
(Mobile browser)

ATC Audio Archives
Interesting Recordings

LiveATC Forums


Home Page
About LiveATC.net
Make a Donation
Terms of Use
Privacy Policy

Canadian Air Freqs

AIRMETs/SIGMETs

FAA Airport Status
Nat'l Airspace Status
Arrival Demand Charts


Server Software By:
Icecast.org
Liquidsoap